sensor_id;sensor_type;location;lat;lon;timestamp;P1;durP1;ratioP1;P2;durP2;ratioP2
54845;SDS011;53889;50.084;8.646;2023-06-10T00:02:23;10.07;;;5.82;;
54845;SDS011;53889;50.084;8.646;2023-06-10T00:04:50;8.48;;;5.85;;
54845;SDS011;53889;50.084;8.646;2023-06-10T00:07:17;7.20;;;5.90;;
54845;SDS011;53889;50.084;8.646;2023-06-10T00:09:44;7.70;;;6.07;;
54845;SDS011;53889;50.084;8.646;2023-06-10T00:12:11;7.60;;;5.70;;
54845;SDS011;53889;50.084;8.646;2023-06-10T00:14:38;7.07;;;6.05;;
54845;SDS011;53889;50.084;8.646;2023-06-10T00:17:06;8.15;;;5.85;;
54845;SDS011;53889;50.084;8.646;2023-06-10T00:19:36;7.22;;;5.80;;
54845;SDS011;53889;50.084;8.646;2023-06-10T00:22:06;8.50;;;5.90;;
54845;SDS011;53889;50.084;8.646;2023-06-10T00:24:33;8.98;;;6.00;;
54845;SDS011;53889;50.084;8.646;2023-06-10T00:27:00;8.27;;;6.05;;
54845;SDS011;53889;50.084;8.646;2023-06-10T00:29:27;7.82;;;6.05;;
54845;SDS011;53889;50.084;8.646;2023-06-10T00:31:54;7.60;;;6.00;;
54845;SDS011;53889;50.084;8.646;2023-06-10T00:34:22;7.95;;;5.88;;
54845;SDS011;53889;50.084;8.646;2023-06-10T00:36:52;7.97;;;6.20;;
54845;SDS011;53889;50.084;8.646;2023-06-10T00:39:18;7.57;;;6.15;;
54845;SDS011;53889;50.084;8.646;2023-06-10T00:41:45;8.25;;;5.82;;
54845;SDS011;53889;50.084;8.646;2023-06-10T00:44:12;7.85;;;6.00;;
54845;SDS011;53889;50.084;8.646;2023-06-10T00:46:39;9.77;;;6.28;;
54845;SDS011;53889;50.084;8.646;2023-06-10T00:49:06;9.25;;;6.00;;
54845;SDS011;53889;50.084;8.646;2023-06-10T00:51:33;6.30;;;5.60;;
54845;SDS011;53889;50.084;8.646;2023-06-10T00:54:02;9.20;;;6.20;;
54845;SDS011;53889;50.084;8.646;2023-06-10T00:56:30;7.00;;;6.00;;
54845;SDS011;53889;50.084;8.646;2023-06-10T00:58:58;7.93;;;5.65;;
54845;SDS011;53889;50.084;8.646;2023-06-10T01:01:25;9.10;;;6.20;;
54845;SDS011;53889;50.084;8.646;2023-06-10T01:03:52;7.88;;;5.82;;
54845;SDS011;53889;50.084;8.646;2023-06-10T01:06:24;7.90;;;6.38;;
54845;SDS011;53889;50.084;8.646;2023-06-10T01:09:05;8.65;;;6.45;;
54845;SDS011;53889;50.084;8.646;2023-06-10T01:11:47;8.13;;;6.57;;
54845;SDS011;53889;50.084;8.646;2023-06-10T01:14:21;12.02;;;6.95;;
54845;SDS011;53889;50.084;8.646;2023-06-10T01:16:49;8.05;;;5.85;;
54845;SDS011;53889;50.084;8.646;2023-06-10T01:19:18;7.18;;;5.50;;
54845;SDS011;53889;50.084;8.646;2023-06-10T01:21:46;9.43;;;6.10;;
54845;SDS011;53889;50.084;8.646;2023-06-10T01:24:13;8.25;;;6.00;;
54845;SDS011;53889;50.084;8.646;2023-06-10T01:26:43;6.70;;;5.53;;
54845;SDS011;53889;50.084;8.646;2023-06-10T01:29:14;6.65;;;5.90;;
54845;SDS011;53889;50.084;8.646;2023-06-10T01:31:46;7.50;;;5.68;;
54845;SDS011;53889;50.084;8.646;2023-06-10T01:34:19;8.10;;;5.90;;
54845;SDS011;53889;50.084;8.646;2023-06-10T01:36:50;8.05;;;6.18;;
54845;SDS011;53889;50.084;8.646;2023-06-10T01:39:20;7.78;;;6.18;;
54845;SDS011;53889;50.084;8.646;2023-06-10T01:41:50;7.10;;;5.88;;
54845;SDS011;53889;50.084;8.646;2023-06-10T01:44:18;7.60;;;6.10;;
54845;SDS011;53889;50.084;8.646;2023-06-10T01:46:46;7.88;;;6.03;;
54845;SDS011;53889;50.084;8.646;2023-06-10T01:49:12;9.02;;;5.95;;
54845;SDS011;53889;50.084;8.646;2023-06-10T01:51:41;8.88;;;6.25;;
54845;SDS011;53889;50.084;8.646;2023-06-10T01:54:10;7.10;;;5.80;;
54845;SDS011;53889;50.084;8.646;2023-06-10T01:56:36;8.85;;;6.20;;
54845;SDS011;53889;50.084;8.646;2023-06-10T01:59:03;9.73;;;5.80;;
54845;SDS011;53889;50.084;8.646;2023-06-10T02:01:30;7.75;;;6.10;;
54845;SDS011;53889;50.084;8.646;2023-06-10T02:03:58;7.13;;;5.65;;
54845;SDS011;53889;50.084;8.646;2023-06-10T02:06:25;6.80;;;5.80;;
54845;SDS011;53889;50.084;8.646;2023-06-10T02:08:52;8.45;;;5.75;;
54845;SDS011;53889;50.084;8.646;2023-06-10T02:11:21;7.68;;;6.30;;
54845;SDS011;53889;50.084;8.646;2023-06-10T02:13:47;7.50;;;5.95;;
54845;SDS011;53889;50.084;8.646;2023-06-10T02:16:14;7.28;;;5.50;;
54845;SDS011;53889;50.084;8.646;2023-06-10T02:18:42;8.50;;;5.75;;
54845;SDS011;53889;50.084;8.646;2023-06-10T02:21:10;9.07;;;5.78;;
54845;SDS011;53889;50.084;8.646;2023-06-10T02:23:36;7.63;;;5.68;;
54845;SDS011;53889;50.084;8.646;2023-06-10T02:26:03;7.35;;;5.50;;
54845;SDS011;53889;50.084;8.646;2023-06-10T02:28:32;8.07;;;5.40;;
54845;SDS011;53889;50.084;8.646;2023-06-10T02:30:58;7.60;;;5.80;;
54845;SDS011;53889;50.084;8.646;2023-06-10T02:33:26;7.72;;;5.75;;
54845;SDS011;53889;50.084;8.646;2023-06-10T02:35:53;6.47;;;5.50;;
54845;SDS011;53889;50.084;8.646;2023-06-10T02:38:21;9.82;;;6.10;;
54845;SDS011;53889;50.084;8.646;2023-06-10T02:40:48;7.63;;;5.82;;
54845;SDS011;53889;50.084;8.646;2023-06-10T02:43:15;9.23;;;5.72;;
54845;SDS011;53889;50.084;8.646;2023-06-10T02:45:44;7.82;;;5.90;;
54845;SDS011;53889;50.084;8.646;2023-06-10T02:48:13;8.48;;;5.60;;
54845;SDS011;53889;50.084;8.646;2023-06-10T02:50:40;12.30;;;6.25;;
54845;SDS011;53889;50.084;8.646;2023-06-10T02:53:15;7.25;;;5.78;;
54845;SDS011;53889;50.084;8.646;2023-06-10T02:55:47;9.50;;;6.30;;
54845;SDS011;53889;50.084;8.646;2023-06-10T02:58:16;11.40;;;7.00;;
54845;SDS011;53889;50.084;8.646;2023-06-10T03:00:44;7.78;;;6.57;;
54845;SDS011;53889;50.084;8.646;2023-06-10T03:03:12;7.93;;;6.70;;
54845;SDS011;53889;50.084;8.646;2023-06-10T03:05:48;9.00;;;6.47;;
54845;SDS011;53889;50.084;8.646;2023-06-10T03:08:17;11.15;;;6.63;;
54845;SDS011;53889;50.084;8.646;2023-06-10T03:10:44;8.00;;;6.18;;
54845;SDS011;53889;50.084;8.646;2023-06-10T03:13:14;8.93;;;6.70;;
54845;SDS011;53889;50.084;8.646;2023-06-10T03:15:41;8.70;;;6.40;;
54845;SDS011;53889;50.084;8.646;2023-06-10T03:18:14;10.68;;;6.70;;
54845;SDS011;53889;50.084;8.646;2023-06-10T03:20:42;8.93;;;6.55;;
54845;SDS011;53889;50.084;8.646;2023-06-10T03:23:09;8.75;;;6.60;;
54845;SDS011;53889;50.084;8.646;2023-06-10T03:25:36;8.70;;;6.55;;
54845;SDS011;53889;50.084;8.646;2023-06-10T03:28:03;10.38;;;6.95;;
54845;SDS011;53889;50.084;8.646;2023-06-10T03:30:30;10.10;;;6.72;;
54845;SDS011;53889;50.084;8.646;2023-06-10T03:32:58;9.13;;;6.65;;
54845;SDS011;53889;50.084;8.646;2023-06-10T03:35:28;7.75;;;6.10;;
54845;SDS011;53889;50.084;8.646;2023-06-10T03:37:55;9.13;;;6.50;;
54845;SDS011;53889;50.084;8.646;2023-06-10T03:40:22;7.85;;;6.40;;
54845;SDS011;53889;50.084;8.646;2023-06-10T03:42:49;7.95;;;5.85;;
54845;SDS011;53889;50.084;8.646;2023-06-10T03:45:17;6.97;;;5.55;;
54845;SDS011;53889;50.084;8.646;2023-06-10T03:47:46;8.07;;;5.68;;
54845;SDS011;53889;50.084;8.646;2023-06-10T03:50:14;8.10;;;5.85;;
54845;SDS011;53889;50.084;8.646;2023-06-10T03:52:44;7.75;;;5.72;;
54845;SDS011;53889;50.084;8.646;2023-06-10T03:55:13;6.80;;;5.72;;
54845;SDS011;53889;50.084;8.646;2023-06-10T03:57:43;7.93;;;5.60;;
54845;SDS011;53889;50.084;8.646;2023-06-10T04:00:11;7.15;;;5.45;;
54845;SDS011;53889;50.084;8.646;2023-06-10T04:02:41;7.70;;;5.53;;
54845;SDS011;53889;50.084;8.646;2023-06-10T04:05:15;8.55;;;5.80;;
54845;SDS011;53889;50.084;8.646;2023-06-10T04:07:42;8.27;;;5.90;;
54845;SDS011;53889;50.084;8.646;2023-06-10T04:10:11;7.30;;;5.72;;
54845;SDS011;53889;50.084;8.646;2023-06-10T04:12:38;7.88;;;5.30;;
54845;SDS011;53889;50.084;8.646;2023-06-10T04:15:06;7.45;;;5.45;;
54845;SDS011;53889;50.084;8.646;2023-06-10T04:17:33;8.50;;;5.47;;
54845;SDS011;53889;50.084;8.646;2023-06-10T04:20:00;8.55;;;5.47;;
54845;SDS011;53889;50.084;8.646;2023-06-10T04:22:29;7.57;;;5.65;;
54845;SDS011;53889;50.084;8.646;2023-06-10T04:24:57;6.70;;;5.10;;
54845;SDS011;53889;50.084;8.646;2023-06-10T04:27:24;8.40;;;5.32;;
54845;SDS011;53889;50.084;8.646;2023-06-10T04:29:51;7.47;;;5.03;;
54845;SDS011;53889;50.084;8.646;2023-06-10T04:32:19;8.45;;;5.40;;
54845;SDS011;53889;50.084;8.646;2023-06-10T04:34:45;7.35;;;4.93;;
54845;SDS011;53889;50.084;8.646;2023-06-10T04:37:13;7.75;;;4.70;;
54845;SDS011;53889;50.084;8.646;2023-06-10T04:39:40;5.65;;;4.47;;
54845;SDS011;53889;50.084;8.646;2023-06-10T04:42:08;5.82;;;4.78;;
54845;SDS011;53889;50.084;8.646;2023-06-10T04:44:36;6.95;;;4.55;;
54845;SDS011;53889;50.084;8.646;2023-06-10T04:47:04;6.93;;;4.78;;
54845;SDS011;53889;50.084;8.646;2023-06-10T04:49:32;7.95;;;4.85;;
54845;SDS011;53889;50.084;8.646;2023-06-10T04:52:01;6.85;;;4.72;;
54845;SDS011;53889;50.084;8.646;2023-06-10T04:54:32;7.18;;;4.63;;
54845;SDS011;53889;50.084;8.646;2023-06-10T04:56:58;6.63;;;4.63;;
54845;SDS011;53889;50.084;8.646;2023-06-10T04:59:26;6.07;;;4.28;;
54845;SDS011;53889;50.084;8.646;2023-06-10T05:01:54;7.13;;;5.32;;
54845;SDS011;53889;50.084;8.646;2023-06-10T05:04:21;5.82;;;4.25;;
54845;SDS011;53889;50.084;8.646;2023-06-10T05:06:48;5.50;;;3.97;;
54845;SDS011;53889;50.084;8.646;2023-06-10T05:09:15;6.05;;;4.07;;
54845;SDS011;53889;50.084;8.646;2023-06-10T05:11:41;5.00;;;4.20;;
54845;SDS011;53889;50.084;8.646;2023-06-10T05:14:08;8.15;;;4.05;;
54845;SDS011;53889;50.084;8.646;2023-06-10T05:16:37;4.32;;;3.53;;
54845;SDS011;53889;50.084;8.646;2023-06-10T05:19:03;5.47;;;4.10;;
54845;SDS011;53889;50.084;8.646;2023-06-10T05:21:30;5.28;;;3.78;;
54845;SDS011;53889;50.084;8.646;2023-06-10T05:23:57;4.75;;;3.70;;
54845;SDS011;53889;50.084;8.646;2023-06-10T05:26:24;4.80;;;3.78;;
54845;SDS011;53889;50.084;8.646;2023-06-10T05:28:51;5.97;;;3.70;;
54845;SDS011;53889;50.084;8.646;2023-06-10T05:31:18;6.45;;;3.80;;
54845;SDS011;53889;50.084;8.646;2023-06-10T05:33:46;6.88;;;3.70;;
54845;SDS011;53889;50.084;8.646;2023-06-10T05:36:12;6.85;;;3.83;;
54845;SDS011;53889;50.084;8.646;2023-06-10T05:38:39;4.63;;;3.60;;
54845;SDS011;53889;50.084;8.646;2023-06-10T05:41:06;5.68;;;3.50;;
54845;SDS011;53889;50.084;8.646;2023-06-10T05:43:32;4.95;;;3.60;;
54845;SDS011;53889;50.084;8.646;2023-06-10T05:46:00;5.00;;;3.38;;
54845;SDS011;53889;50.084;8.646;2023-06-10T05:48:26;5.80;;;3.92;;
54845;SDS011;53889;50.084;8.646;2023-06-10T05:50:54;7.05;;;3.30;;
54845;SDS011;53889;50.084;8.646;2023-06-10T05:53:21;4.50;;;3.45;;
54845;SDS011;53889;50.084;8.646;2023-06-10T05:55:48;6.28;;;3.60;;
54845;SDS011;53889;50.084;8.646;2023-06-10T05:58:14;5.93;;;3.53;;
54845;SDS011;53889;50.084;8.646;2023-06-10T06:00:41;5.97;;;4.25;;
54845;SDS011;53889;50.084;8.646;2023-06-10T06:03:08;5.47;;;3.55;;
54845;SDS011;53889;50.084;8.646;2023-06-10T06:05:35;4.28;;;3.53;;
54845;SDS011;53889;50.084;8.646;2023-06-10T06:08:04;4.13;;;3.30;;
54845;SDS011;53889;50.084;8.646;2023-06-10T06:10:31;5.20;;;3.50;;
54845;SDS011;53889;50.084;8.646;2023-06-10T06:12:58;5.93;;;3.80;;
54845;SDS011;53889;50.084;8.646;2023-06-10T06:15:26;6.28;;;3.60;;
54845;SDS011;53889;50.084;8.646;2023-06-10T06:17:53;4.93;;;3.33;;
54845;SDS011;53889;50.084;8.646;2023-06-10T06:20:20;4.78;;;3.50;;
54845;SDS011;53889;50.084;8.646;2023-06-10T06:22:48;5.50;;;3.50;;
54845;SDS011;53889;50.084;8.646;2023-06-10T06:25:16;7.32;;;3.80;;
54845;SDS011;53889;50.084;8.646;2023-06-10T06:27:43;4.75;;;3.45;;
54845;SDS011;53889;50.084;8.646;2023-06-10T06:30:10;6.05;;;3.63;;
54845;SDS011;53889;50.084;8.646;2023-06-10T06:32:37;6.63;;;3.42;;
54845;SDS011;53889;50.084;8.646;2023-06-10T06:35:04;4.90;;;3.53;;
54845;SDS011;53889;50.084;8.646;2023-06-10T06:37:36;6.43;;;3.60;;
54845;SDS011;53889;50.084;8.646;2023-06-10T06:40:15;4.20;;;3.33;;
54845;SDS011;53889;50.084;8.646;2023-06-10T06:42:42;5.13;;;3.70;;
54845;SDS011;53889;50.084;8.646;2023-06-10T06:45:15;6.18;;;3.55;;
54845;SDS011;53889;50.084;8.646;2023-06-10T06:47:42;5.80;;;3.67;;
54845;SDS011;53889;50.084;8.646;2023-06-10T06:50:09;5.75;;;3.60;;
54845;SDS011;53889;50.084;8.646;2023-06-10T06:52:36;5.72;;;3.63;;
54845;SDS011;53889;50.084;8.646;2023-06-10T06:55:03;6.78;;;3.65;;
54845;SDS011;53889;50.084;8.646;2023-06-10T06:57:31;5.97;;;3.75;;
54845;SDS011;53889;50.084;8.646;2023-06-10T06:59:58;5.03;;;3.45;;
54845;SDS011;53889;50.084;8.646;2023-06-10T07:02:24;4.80;;;3.92;;
54845;SDS011;53889;50.084;8.646;2023-06-10T07:04:51;5.32;;;3.63;;
54845;SDS011;53889;50.084;8.646;2023-06-10T07:07:20;5.30;;;3.75;;
54845;SDS011;53889;50.084;8.646;2023-06-10T07:09:47;4.53;;;3.50;;
54845;SDS011;53889;50.084;8.646;2023-06-10T07:12:14;4.85;;;3.40;;
54845;SDS011;53889;50.084;8.646;2023-06-10T07:14:42;4.57;;;3.72;;
54845;SDS011;53889;50.084;8.646;2023-06-10T07:17:09;4.35;;;3.17;;
54845;SDS011;53889;50.084;8.646;2023-06-10T07:19:35;5.25;;;3.72;;
54845;SDS011;53889;50.084;8.646;2023-06-10T07:22:02;4.50;;;3.60;;
54845;SDS011;53889;50.084;8.646;2023-06-10T07:24:29;5.22;;;3.40;;
54845;SDS011;53889;50.084;8.646;2023-06-10T07:26:56;5.68;;;3.85;;
54845;SDS011;53889;50.084;8.646;2023-06-10T07:29:22;5.25;;;3.30;;
54845;SDS011;53889;50.084;8.646;2023-06-10T07:31:50;5.13;;;3.20;;
54845;SDS011;53889;50.084;8.646;2023-06-10T07:34:18;5.88;;;3.58;;
54845;SDS011;53889;50.084;8.646;2023-06-10T07:36:45;5.65;;;3.60;;
54845;SDS011;53889;50.084;8.646;2023-06-10T07:39:11;4.80;;;3.38;;
54845;SDS011;53889;50.084;8.646;2023-06-10T07:41:38;4.60;;;3.40;;
54845;SDS011;53889;50.084;8.646;2023-06-10T07:44:05;5.57;;;5.07;;
54845;SDS011;53889;50.084;8.646;2023-06-10T07:46:31;4.07;;;3.22;;
54845;SDS011;53889;50.084;8.646;2023-06-10T07:48:59;4.20;;;3.17;;
54845;SDS011;53889;50.084;8.646;2023-06-10T07:51:27;4.88;;;3.30;;
54845;SDS011;53889;50.084;8.646;2023-06-10T07:53:53;6.60;;;3.60;;
54845;SDS011;53889;50.084;8.646;2023-06-10T07:56:20;5.60;;;3.40;;
54845;SDS011;53889;50.084;8.646;2023-06-10T07:58:47;5.68;;;3.90;;
54845;SDS011;53889;50.084;8.646;2023-06-10T08:01:14;4.93;;;3.05;;
54845;SDS011;53889;50.084;8.646;2023-06-10T08:03:40;5.05;;;3.28;;
54845;SDS011;53889;50.084;8.646;2023-06-10T08:06:08;4.13;;;3.00;;
54845;SDS011;53889;50.084;8.646;2023-06-10T08:08:36;4.43;;;3.50;;
54845;SDS011;53889;50.084;8.646;2023-06-10T08:11:06;3.35;;;3.05;;
54845;SDS011;53889;50.084;8.646;2023-06-10T08:13:33;4.68;;;3.08;;
54845;SDS011;53889;50.084;8.646;2023-06-10T08:16:00;5.13;;;3.30;;
54845;SDS011;53889;50.084;8.646;2023-06-10T08:18:27;6.07;;;3.67;;
54845;SDS011;53889;50.084;8.646;2023-06-10T08:20:53;3.60;;;3.20;;
54845;SDS011;53889;50.084;8.646;2023-06-10T08:23:22;3.67;;;2.80;;
54845;SDS011;53889;50.084;8.646;2023-06-10T08:25:48;4.97;;;3.30;;
54845;SDS011;53889;50.084;8.646;2023-06-10T08:28:16;4.93;;;3.20;;
54845;SDS011;53889;50.084;8.646;2023-06-10T08:30:42;5.57;;;3.70;;
54845;SDS011;53889;50.084;8.646;2023-06-10T08:33:09;5.13;;;3.38;;
54845;SDS011;53889;50.084;8.646;2023-06-10T08:35:36;5.88;;;3.42;;
54845;SDS011;53889;50.084;8.646;2023-06-10T08:38:02;6.05;;;3.17;;
54845;SDS011;53889;50.084;8.646;2023-06-10T08:40:31;5.00;;;3.35;;
54845;SDS011;53889;50.084;8.646;2023-06-10T08:43:00;4.65;;;3.17;;
54845;SDS011;53889;50.084;8.646;2023-06-10T08:45:31;5.05;;;3.10;;
54845;SDS011;53889;50.084;8.646;2023-06-10T08:48:01;5.65;;;3.00;;
54845;SDS011;53889;50.084;8.646;2023-06-10T08:50:31;4.10;;;3.33;;
54845;SDS011;53889;50.084;8.646;2023-06-10T08:53:00;4.88;;;3.22;;
54845;SDS011;53889;50.084;8.646;2023-06-10T08:55:29;4.80;;;3.17;;
54845;SDS011;53889;50.084;8.646;2023-06-10T08:57:59;5.35;;;3.28;;
54845;SDS011;53889;50.084;8.646;2023-06-10T09:00:26;4.85;;;3.00;;
54845;SDS011;53889;50.084;8.646;2023-06-10T09:02:53;4.35;;;2.92;;
54845;SDS011;53889;50.084;8.646;2023-06-10T09:05:21;4.32;;;3.10;;
54845;SDS011;53889;50.084;8.646;2023-06-10T09:07:48;4.80;;;3.22;;
54845;SDS011;53889;50.084;8.646;2023-06-10T09:10:14;4.50;;;3.00;;
54845;SDS011;53889;50.084;8.646;2023-06-10T09:12:43;5.70;;;3.10;;
54845;SDS011;53889;50.084;8.646;2023-06-10T09:15:10;5.35;;;3.20;;
54845;SDS011;53889;50.084;8.646;2023-06-10T09:17:39;4.38;;;3.30;;
54845;SDS011;53889;50.084;8.646;2023-06-10T09:20:06;5.35;;;3.25;;
54845;SDS011;53889;50.084;8.646;2023-06-10T09:22:34;4.40;;;2.97;;
54845;SDS011;53889;50.084;8.646;2023-06-10T09:25:05;3.80;;;2.75;;
54845;SDS011;53889;50.084;8.646;2023-06-10T09:27:33;4.72;;;3.30;;
54845;SDS011;53889;50.084;8.646;2023-06-10T09:30:23;4.05;;;3.13;;
54845;SDS011;53889;50.084;8.646;2023-06-10T09:32:52;4.13;;;3.00;;
54845;SDS011;53889;50.084;8.646;2023-06-10T09:35:21;4.18;;;3.08;;
54845;SDS011;53889;50.084;8.646;2023-06-10T09:37:49;4.78;;;2.90;;
54845;SDS011;53889;50.084;8.646;2023-06-10T09:40:17;4.60;;;3.00;;
54845;SDS011;53889;50.084;8.646;2023-06-10T09:42:45;3.63;;;2.97;;
54845;SDS011;53889;50.084;8.646;2023-06-10T09:45:18;5.90;;;3.08;;
54845;SDS011;53889;50.084;8.646;2023-06-10T09:47:45;4.38;;;2.45;;
54845;SDS011;53889;50.084;8.646;2023-06-10T09:50:12;4.57;;;2.70;;
54845;SDS011;53889;50.084;8.646;2023-06-10T09:52:39;4.03;;;3.15;;
54845;SDS011;53889;50.084;8.646;2023-06-10T09:55:08;5.78;;;2.83;;
54845;SDS011;53889;50.084;8.646;2023-06-10T09:57:36;4.30;;;2.85;;
54845;SDS011;53889;50.084;8.646;2023-06-10T10:00:06;5.45;;;2.97;;
54845;SDS011;53889;50.084;8.646;2023-06-10T10:02:44;4.22;;;2.78;;
54845;SDS011;53889;50.084;8.646;2023-06-10T10:05:12;4.55;;;2.95;;
54845;SDS011;53889;50.084;8.646;2023-06-10T10:07:40;4.78;;;2.90;;
54845;SDS011;53889;50.084;8.646;2023-06-10T10:10:06;3.50;;;2.60;;
54845;SDS011;53889;50.084;8.646;2023-06-10T10:12:34;4.03;;;2.60;;
54845;SDS011;53889;50.084;8.646;2023-06-10T10:15:02;5.07;;;2.42;;
54845;SDS011;53889;50.084;8.646;2023-06-10T10:17:34;3.72;;;2.70;;
54845;SDS011;53889;50.084;8.646;2023-06-10T10:20:03;4.00;;;2.50;;
54845;SDS011;53889;50.084;8.646;2023-06-10T10:22:37;4.97;;;2.58;;
54845;SDS011;53889;50.084;8.646;2023-06-10T10:25:07;6.28;;;2.70;;
54845;SDS011;53889;50.084;8.646;2023-06-10T10:27:38;4.90;;;2.88;;
54845;SDS011;53889;50.084;8.646;2023-06-10T10:32:50;3.17;;;2.40;;
54845;SDS011;53889;50.084;8.646;2023-06-10T10:35:22;3.15;;;2.53;;
54845;SDS011;53889;50.084;8.646;2023-06-10T10:37:50;4.10;;;2.70;;
54845;SDS011;53889;50.084;8.646;2023-06-10T10:40:18;3.38;;;2.60;;
54845;SDS011;53889;50.084;8.646;2023-06-10T10:42:46;2.95;;;2.42;;
54845;SDS011;53889;50.084;8.646;2023-06-10T10:45:16;4.43;;;2.60;;
54845;SDS011;53889;50.084;8.646;2023-06-10T10:47:43;4.22;;;2.72;;
54845;SDS011;53889;50.084;8.646;2023-06-10T10:50:15;4.47;;;2.30;;
54845;SDS011;53889;50.084;8.646;2023-06-10T10:52:48;4.32;;;2.70;;
54845;SDS011;53889;50.084;8.646;2023-06-10T10:55:18;3.67;;;2.35;;
54845;SDS011;53889;50.084;8.646;2023-06-10T10:57:45;4.53;;;2.60;;
54845;SDS011;53889;50.084;8.646;2023-06-10T11:00:25;3.90;;;2.67;;
54845;SDS011;53889;50.084;8.646;2023-06-10T11:02:56;3.60;;;2.60;;
54845;SDS011;53889;50.084;8.646;2023-06-10T11:05:31;4.60;;;2.50;;
54845;SDS011;53889;50.084;8.646;2023-06-10T11:08:01;4.45;;;2.67;;
54845;SDS011;53889;50.084;8.646;2023-06-10T11:10:28;4.38;;;2.50;;
54845;SDS011;53889;50.084;8.646;2023-06-10T11:12:56;4.85;;;2.50;;
54845;SDS011;53889;50.084;8.646;2023-06-10T11:15:24;3.63;;;2.40;;
54845;SDS011;53889;50.084;8.646;2023-06-10T11:18:08;4.22;;;2.28;;
54845;SDS011;53889;50.084;8.646;2023-06-10T11:23:26;3.05;;;2.30;;
54845;SDS011;53889;50.084;8.646;2023-06-10T11:26:12;4.00;;;2.47;;
54845;SDS011;53889;50.084;8.646;2023-06-10T11:28:39;4.13;;;2.40;;
54845;SDS011;53889;50.084;8.646;2023-06-10T11:31:08;4.85;;;2.72;;
54845;SDS011;53889;50.084;8.646;2023-06-10T11:33:44;5.35;;;3.35;;
54845;SDS011;53889;50.084;8.646;2023-06-10T11:36:12;4.55;;;2.80;;
54845;SDS011;53889;50.084;8.646;2023-06-10T11:38:39;5.63;;;2.90;;
54845;SDS011;53889;50.084;8.646;2023-06-10T11:41:06;7.15;;;3.40;;
54845;SDS011;53889;50.084;8.646;2023-06-10T11:43:33;4.50;;;3.10;;
54845;SDS011;53889;50.084;8.646;2023-06-10T11:46:00;5.85;;;3.10;;
54845;SDS011;53889;50.084;8.646;2023-06-10T11:48:28;4.00;;;2.85;;
54845;SDS011;53889;50.084;8.646;2023-06-10T11:50:56;3.97;;;2.70;;
54845;SDS011;53889;50.084;8.646;2023-06-10T11:53:23;3.97;;;2.40;;
54845;SDS011;53889;50.084;8.646;2023-06-10T11:55:50;3.90;;;2.35;;
54845;SDS011;53889;50.084;8.646;2023-06-10T11:58:18;4.15;;;2.15;;
54845;SDS011;53889;50.084;8.646;2023-06-10T12:00:46;4.10;;;2.17;;
54845;SDS011;53889;50.084;8.646;2023-06-10T12:03:13;5.35;;;2.42;;
54845;SDS011;53889;50.084;8.646;2023-06-10T12:05:41;4.10;;;2.35;;
54845;SDS011;53889;50.084;8.646;2023-06-10T12:08:21;3.92;;;2.20;;
54845;SDS011;53889;50.084;8.646;2023-06-10T12:10:47;4.10;;;2.30;;
54845;SDS011;53889;50.084;8.646;2023-06-10T12:13:14;4.35;;;2.60;;
54845;SDS011;53889;50.084;8.646;2023-06-10T12:15:42;4.80;;;2.65;;
54845;SDS011;53889;50.084;8.646;2023-06-10T12:18:15;4.45;;;2.40;;
54845;SDS011;53889;50.084;8.646;2023-06-10T12:20:43;4.47;;;2.50;;
54845;SDS011;53889;50.084;8.646;2023-06-10T12:23:10;5.70;;;2.70;;
54845;SDS011;53889;50.084;8.646;2023-06-10T12:25:38;9.00;;;3.03;;
54845;SDS011;53889;50.084;8.646;2023-06-10T12:28:09;3.85;;;2.80;;
54845;SDS011;53889;50.084;8.646;2023-06-10T12:30:36;3.97;;;2.70;;
54845;SDS011;53889;50.084;8.646;2023-06-10T12:33:03;5.78;;;2.95;;
54845;SDS011;53889;50.084;8.646;2023-06-10T12:35:29;8.77;;;4.25;;
54845;SDS011;53889;50.084;8.646;2023-06-10T12:37:58;8.52;;;3.10;;
54845;SDS011;53889;50.084;8.646;2023-06-10T12:40:27;6.43;;;3.33;;
54845;SDS011;53889;50.084;8.646;2023-06-10T12:42:54;12.85;;;4.18;;
54845;SDS011;53889;50.084;8.646;2023-06-10T12:45:28;6.38;;;3.53;;
54845;SDS011;53889;50.084;8.646;2023-06-10T12:48:03;6.70;;;3.50;;
54845;SDS011;53889;50.084;8.646;2023-06-10T12:50:31;17.00;;;5.28;;
54845;SDS011;53889;50.084;8.646;2023-06-10T12:53:00;8.90;;;3.75;;
54845;SDS011;53889;50.084;8.646;2023-06-10T12:55:26;4.50;;;3.15;;
54845;SDS011;53889;50.084;8.646;2023-06-10T12:57:54;13.77;;;4.40;;
54845;SDS011;53889;50.084;8.646;2023-06-10T13:00:21;16.45;;;4.80;;
54845;SDS011;53889;50.084;8.646;2023-06-10T13:02:50;6.63;;;3.38;;
54845;SDS011;53889;50.084;8.646;2023-06-10T13:05:17;4.57;;;2.90;;
54845;SDS011;53889;50.084;8.646;2023-06-10T13:07:45;7.82;;;3.03;;
54845;SDS011;53889;50.084;8.646;2023-06-10T13:10:13;6.80;;;3.08;;
54845;SDS011;53889;50.084;8.646;2023-06-10T13:12:41;8.23;;;3.13;;
54845;SDS011;53889;50.084;8.646;2023-06-10T13:15:08;6.03;;;3.20;;
54845;SDS011;53889;50.084;8.646;2023-06-10T13:17:35;6.57;;;2.92;;
54845;SDS011;53889;50.084;8.646;2023-06-10T13:20:02;5.10;;;2.92;;
54845;SDS011;53889;50.084;8.646;2023-06-10T13:22:29;5.50;;;2.85;;
54845;SDS011;53889;50.084;8.646;2023-06-10T13:24:57;5.40;;;2.83;;
54845;SDS011;53889;50.084;8.646;2023-06-10T13:27:25;7.47;;;3.20;;
54845;SDS011;53889;50.084;8.646;2023-06-10T13:29:52;4.18;;;3.15;;
54845;SDS011;53889;50.084;8.646;2023-06-10T13:32:19;6.40;;;2.80;;
54845;SDS011;53889;50.084;8.646;2023-06-10T13:34:46;5.82;;;2.80;;
54845;SDS011;53889;50.084;8.646;2023-06-10T13:37:14;5.53;;;2.97;;
54845;SDS011;53889;50.084;8.646;2023-06-10T13:39:42;5.20;;;3.00;;
54845;SDS011;53889;50.084;8.646;2023-06-10T13:42:09;9.80;;;3.58;;
54845;SDS011;53889;50.084;8.646;2023-06-10T13:44:37;4.50;;;3.00;;
54845;SDS011;53889;50.084;8.646;2023-06-10T13:47:03;4.45;;;2.80;;
54845;SDS011;53889;50.084;8.646;2023-06-10T13:49:31;4.72;;;3.00;;
54845;SDS011;53889;50.084;8.646;2023-06-10T13:51:58;6.28;;;3.40;;
54845;SDS011;53889;50.084;8.646;2023-06-10T13:54:25;6.25;;;3.17;;
54845;SDS011;53889;50.084;8.646;2023-06-10T13:56:52;6.10;;;2.90;;
54845;SDS011;53889;50.084;8.646;2023-06-10T13:59:18;7.15;;;3.45;;
54845;SDS011;53889;50.084;8.646;2023-06-10T14:01:47;4.43;;;2.63;;
54845;SDS011;53889;50.084;8.646;2023-06-10T14:04:13;6.07;;;3.90;;
54845;SDS011;53889;50.084;8.646;2023-06-10T14:06:40;5.70;;;2.60;;
54845;SDS011;53889;50.084;8.646;2023-06-10T14:09:07;7.28;;;2.72;;
54845;SDS011;53889;50.084;8.646;2023-06-10T14:11:34;4.18;;;2.58;;
54845;SDS011;53889;50.084;8.646;2023-06-10T14:14:01;5.57;;;3.25;;
54845;SDS011;53889;50.084;8.646;2023-06-10T14:16:28;5.82;;;2.60;;
54845;SDS011;53889;50.084;8.646;2023-06-10T14:18:56;6.85;;;2.92;;
54845;SDS011;53889;50.084;8.646;2023-06-10T14:21:22;4.07;;;2.63;;
54845;SDS011;53889;50.084;8.646;2023-06-10T14:23:49;5.25;;;3.97;;
54845;SDS011;53889;50.084;8.646;2023-06-10T14:26:17;5.05;;;2.97;;
54845;SDS011;53889;50.084;8.646;2023-06-10T14:28:44;3.92;;;2.80;;
54845;SDS011;53889;50.084;8.646;2023-06-10T14:31:11;4.18;;;2.50;;
54845;SDS011;53889;50.084;8.646;2023-06-10T14:33:37;5.35;;;2.60;;
54845;SDS011;53889;50.084;8.646;2023-06-10T14:36:06;4.43;;;2.65;;
54845;SDS011;53889;50.084;8.646;2023-06-10T14:38:32;5.70;;;2.85;;
54845;SDS011;53889;50.084;8.646;2023-06-10T14:40:59;5.30;;;2.60;;
54845;SDS011;53889;50.084;8.646;2023-06-10T14:43:26;4.20;;;2.47;;
54845;SDS011;53889;50.084;8.646;2023-06-10T14:45:52;3.97;;;2.63;;
54845;SDS011;53889;50.084;8.646;2023-06-10T14:48:21;3.42;;;2.53;;
54845;SDS011;53889;50.084;8.646;2023-06-10T14:50:47;4.45;;;2.60;;
54845;SDS011;53889;50.084;8.646;2023-06-10T14:53:17;3.50;;;2.50;;
54845;SDS011;53889;50.084;8.646;2023-06-10T14:55:44;7.00;;;3.08;;
54845;SDS011;53889;50.084;8.646;2023-06-10T14:58:11;4.38;;;2.40;;
54845;SDS011;53889;50.084;8.646;2023-06-10T15:00:37;6.05;;;2.72;;